createdAt,value
2018-12-25T00:01:42.326Z,81.30
2018-12-25T00:04:24.561Z,80.50
2018-12-25T00:07:06.585Z,79.60
2018-12-25T00:09:48.136Z,79.60
2018-12-25T00:12:29.807Z,79.60
2018-12-25T00:15:12.036Z,79.80
2018-12-25T00:17:53.784Z,82.60
2018-12-25T00:20:35.644Z,80.70
2018-12-25T00:23:17.791Z,79.60
2018-12-25T00:25:59.084Z,79.80
2018-12-25T00:28:40.604Z,80.00
2018-12-25T00:31:22.795Z,81.30
2018-12-25T00:34:03.975Z,80.50
2018-12-25T00:36:45.933Z,80.30
2018-12-25T00:39:28.181Z,81.00
2018-12-25T00:42:10.609Z,80.40
2018-12-25T00:44:52.600Z,80.80
2018-12-25T00:47:34.040Z,80.90
2018-12-25T00:50:16.178Z,81.40
2018-12-25T00:52:57.891Z,81.60
2018-12-25T00:55:40.192Z,82.10
2018-12-25T00:58:22.024Z,84.10
2018-12-25T01:01:03.741Z,81.20
2018-12-25T01:03:45.922Z,80.70
2018-12-25T01:06:27.841Z,81.50
2018-12-25T01:09:09.635Z,81.20
2018-12-25T01:11:51.887Z,81.60
2018-12-25T01:14:33.267Z,81.00
2018-12-25T01:17:14.948Z,82.10
2018-12-25T01:19:57.218Z,80.60
2018-12-25T01:22:39.309Z,80.10
2018-12-25T01:25:21.284Z,77.20
2018-12-25T01:28:02.985Z,76.20
2018-12-25T01:30:45.058Z,76.40
2018-12-25T01:33:27.277Z,77.30
2018-12-25T01:36:09.209Z,77.70
2018-12-25T01:38:51.176Z,79.20
2018-12-25T01:41:32.692Z,78.50
2018-12-25T01:44:14.710Z,78.80
2018-12-25T01:46:56.149Z,80.30
2018-12-25T01:49:38.009Z,79.60
2018-12-25T01:52:20.429Z,78.20
2018-12-25T01:55:02.176Z,81.20
2018-12-25T01:57:44.138Z,80.00
2018-12-25T02:00:25.844Z,78.80
2018-12-25T02:03:07.525Z,79.50
2018-12-25T02:05:49.505Z,81.00
2018-12-25T02:08:31.132Z,79.00
2018-12-25T02:11:13.122Z,78.10
2018-12-25T02:13:54.556Z,77.30
2018-12-25T02:16:36.122Z,76.40
2018-12-25T02:19:17.937Z,77.10
2018-12-25T02:21:59.913Z,77.50
2018-12-25T02:24:41.825Z,77.20
2018-12-25T02:27:11.748Z,76.80
2018-12-25T02:33:07.422Z,76.40
2018-12-25T02:35:49.437Z,76.20
2018-12-25T02:38:30.864Z,76.60
2018-12-25T02:41:12.921Z,77.30
2018-12-25T02:43:54.417Z,77.50
2018-12-25T02:46:35.869Z,76.60
2018-12-25T02:49:18.431Z,76.00
2018-12-25T02:52:00.372Z,76.20
2018-12-25T02:54:41.758Z,76.30
2018-12-25T02:57:23.070Z,76.70
2018-12-25T03:00:04.778Z,76.90
2018-12-25T03:02:46.877Z,76.40
2018-12-25T03:05:28.954Z,76.40
2018-12-25T03:08:10.316Z,76.30
2018-12-25T03:10:52.138Z,76.10
2018-12-25T03:13:34.650Z,75.60
2018-12-25T03:16:16.253Z,76.60
2018-12-25T03:18:58.184Z,77.50
2018-12-25T03:21:39.757Z,76.90
2018-12-25T03:24:21.170Z,77.40
2018-12-25T03:27:02.800Z,77.90
2018-12-25T03:29:45.083Z,77.40
2018-12-25T03:32:26.463Z,77.50
2018-12-25T03:35:08.898Z,77.80
2018-12-25T03:37:50.959Z,76.40
2018-12-25T03:43:32.294Z,74.80
2018-12-25T03:46:14.239Z,75.00
2018-12-25T03:48:56.122Z,75.20
2018-12-25T03:51:38.218Z,75.10
2018-12-25T03:54:20.209Z,75.20
2018-12-25T03:57:01.762Z,75.70
2018-12-25T03:59:43.441Z,76.00
2018-12-25T04:02:24.922Z,76.10
2018-12-25T04:05:07.213Z,76.30
2018-12-25T04:07:49.163Z,75.70
2018-12-25T04:10:30.713Z,76.30
2018-12-25T04:13:15.860Z,76.30
2018-12-25T04:15:57.621Z,76.70
2018-12-25T04:18:39.688Z,76.50
2018-12-25T04:21:22.017Z,76.90
2018-12-25T04:24:03.725Z,77.20
2018-12-25T04:26:45.510Z,75.80
2018-12-25T04:29:27.206Z,75.70
2018-12-25T04:32:09.369Z,75.70
2018-12-25T04:34:51.420Z,75.70
2018-12-25T04:37:33.111Z,75.90
2018-12-25T04:40:14.890Z,75.50
2018-12-25T04:42:56.912Z,76.00
2018-12-25T04:45:38.802Z,76.10
2018-12-25T04:48:20.869Z,75.60
2018-12-25T04:51:02.589Z,75.80
2018-12-25T04:53:43.945Z,75.90
2018-12-25T04:56:25.965Z,76.00
2018-12-25T04:59:07.619Z,76.50
2018-12-25T05:01:49.876Z,77.50
2018-12-25T05:04:31.801Z,77.30
2018-12-25T05:07:13.400Z,76.10
2018-12-25T05:09:54.818Z,77.80
2018-12-25T05:12:36.815Z,77.90
2018-12-25T05:15:19.321Z,78.10
2018-12-25T05:18:01.508Z,77.10
2018-12-25T05:20:43.513Z,76.80
2018-12-25T05:23:25.841Z,76.70
2018-12-25T05:26:07.993Z,77.50
2018-12-25T05:28:49.342Z,79.00
2018-12-25T05:31:30.932Z,79.30
2018-12-25T05:34:12.744Z,79.50
2018-12-25T05:36:54.804Z,78.60
2018-12-25T05:39:36.189Z,77.80
2018-12-25T05:42:17.361Z,78.10
2018-12-25T05:44:59.392Z,75.80
2018-12-25T05:47:40.808Z,77.00
2018-12-25T05:50:22.413Z,76.50
2018-12-25T05:53:03.701Z,76.80
2018-12-25T05:55:45.436Z,75.80
2018-12-25T05:58:27.388Z,75.80
2018-12-25T06:01:08.980Z,75.30
2018-12-25T06:03:51.061Z,76.70
2018-12-25T06:06:32.817Z,77.70
2018-12-25T06:09:14.941Z,77.70
2018-12-25T06:11:56.359Z,76.60
2018-12-25T06:14:37.749Z,78.20
2018-12-25T06:17:19.047Z,76.50
2018-12-25T06:20:04.729Z,76.10
2018-12-25T06:22:46.502Z,77.00
2018-12-25T06:25:28.384Z,75.40
2018-12-25T06:28:10.148Z,74.80
2018-12-25T06:36:37.873Z,75.30
2018-12-25T06:39:23.712Z,74.80
2018-12-25T06:42:05.473Z,74.90
2018-12-25T06:44:46.989Z,75.00
2018-12-25T06:47:29.137Z,74.00
2018-12-25T06:50:10.757Z,73.90
2018-12-25T06:52:52.305Z,73.90
2018-12-25T06:55:34.248Z,73.20
2018-12-25T06:58:16.057Z,74.50
2018-12-25T07:00:58.093Z,75.90
2018-12-25T07:06:38.949Z,74.90
2018-12-25T07:09:20.913Z,76.00
2018-12-25T07:12:05.841Z,76.60
2018-12-25T07:14:47.181Z,76.20
2018-12-25T07:17:28.668Z,77.70
2018-12-25T07:20:10.837Z,76.90
2018-12-25T07:22:52.586Z,76.80
2018-12-25T07:25:34.402Z,77.60
2018-12-25T07:28:16.033Z,77.60
2018-12-25T07:30:58.037Z,78.30
2018-12-25T07:33:39.882Z,78.90
2018-12-25T07:36:21.230Z,77.80
2018-12-25T07:39:03.219Z,77.70
2018-12-25T07:41:45.288Z,78.90
2018-12-25T07:44:27.760Z,78.20
2018-12-25T07:47:11.217Z,76.70
2018-12-25T07:49:52.616Z,76.50
2018-12-25T07:52:34.458Z,78.00
2018-12-25T07:55:15.733Z,78.10
2018-12-25T07:57:57.225Z,78.60
2018-12-25T08:00:42.494Z,79.80
2018-12-25T08:03:24.069Z,78.60
2018-12-25T08:06:08.713Z,78.20
2018-12-25T08:08:50.417Z,77.50
2018-12-25T08:11:32.594Z,78.70
2018-12-25T08:14:14.286Z,79.10
2018-12-25T08:16:56.397Z,78.90
2018-12-25T08:19:37.630Z,78.90
2018-12-25T08:22:19.608Z,78.80
2018-12-25T08:25:01.165Z,79.50
2018-12-25T08:27:43.077Z,79.00
2018-12-25T08:30:25.041Z,77.50
2018-12-25T08:33:06.888Z,78.30
2018-12-25T08:35:48.818Z,75.20
2018-12-25T08:38:30.670Z,75.90
2018-12-25T08:41:12.204Z,77.10
2018-12-25T08:43:41.781Z,78.80
2018-12-25T08:46:30.592Z,78.60
2018-12-25T08:49:12.288Z,77.90
2018-12-25T08:51:53.691Z,79.60
2018-12-25T08:54:23.145Z,79.30
2018-12-25T08:57:11.920Z,78.60
2018-12-25T09:00:13.526Z,79.30
2018-12-25T09:02:55.092Z,79.30
2018-12-25T09:05:36.494Z,78.60
2018-12-25T09:08:18.216Z,78.10
2018-12-25T09:10:59.832Z,80.30
2018-12-25T09:16:22.650Z,78.40
2018-12-25T09:19:04.689Z,79.40
2018-12-25T09:21:46.594Z,74.60
2018-12-25T09:24:28.605Z,71.30
2018-12-25T09:27:09.952Z,70.80
2018-12-25T09:29:52.093Z,71.20
2018-12-25T09:32:33.685Z,72.70
2018-12-25T09:35:16.025Z,71.60
2018-12-25T09:37:58.104Z,70.90
2018-12-25T09:40:39.320Z,70.40
2018-12-25T09:43:20.716Z,69.80
2018-12-25T09:46:02.717Z,69.40
2018-12-25T09:48:44.768Z,70.30
2018-12-25T09:51:26.944Z,69.50
2018-12-25T09:54:08.684Z,68.70
2018-12-25T09:56:38.186Z,68.80
2018-12-25T09:59:27.093Z,70.20
2018-12-25T10:02:09.173Z,69.00
2018-12-25T10:04:51.125Z,69.60
2018-12-25T10:07:32.641Z,70.20
2018-12-25T10:10:14.705Z,69.90
2018-12-25T10:12:56.322Z,69.10
2018-12-25T10:15:38.586Z,68.30
2018-12-25T10:18:19.832Z,68.30
2018-12-25T10:21:01.780Z,68.50
2018-12-25T10:23:43.033Z,68.80
2018-12-25T10:26:25.657Z,68.80
2018-12-25T10:29:07.501Z,69.10
2018-12-25T10:31:49.124Z,68.20
2018-12-25T10:34:30.340Z,67.80
2018-12-25T10:37:11.626Z,66.90
2018-12-25T10:39:53.801Z,65.70
2018-12-25T10:45:34.589Z,68.60
2018-12-25T10:48:16.273Z,69.20
2018-12-25T10:50:58.053Z,68.60
2018-12-25T10:53:40.157Z,68.20
2018-12-25T10:56:25.370Z,65.70
2018-12-25T10:59:06.932Z,64.90
2018-12-25T11:01:49.342Z,64.10
2018-12-25T11:04:30.758Z,64.20
2018-12-25T11:07:12.217Z,64.60
2018-12-25T11:09:41.632Z,64.80
2018-12-25T11:12:30.501Z,64.60
2018-12-25T11:15:11.984Z,64.20
2018-12-25T11:17:54.350Z,63.90
2018-12-25T11:20:36.654Z,64.30
2018-12-25T11:23:18.865Z,63.70
2018-12-25T11:26:00.974Z,64.30
2018-12-25T11:28:42.845Z,64.80
2018-12-25T11:31:24.886Z,64.80
2018-12-25T11:34:06.389Z,64.70
2018-12-25T11:36:48.190Z,65.60
2018-12-25T11:39:29.716Z,65.30
2018-12-25T11:42:11.406Z,65.00
2018-12-25T11:44:53.190Z,64.70
2018-12-25T11:47:34.645Z,64.60
2018-12-25T11:50:17.169Z,64.00
2018-12-25T11:52:58.811Z,63.60
2018-12-25T11:55:43.317Z,63.70
2018-12-25T11:58:25.097Z,64.20
2018-12-25T12:01:06.829Z,64.00
2018-12-25T12:03:48.389Z,62.90
2018-12-25T12:06:30.752Z,62.50
2018-12-25T12:09:12.811Z,63.90
2018-12-25T12:11:54.668Z,63.40
2018-12-25T12:14:35.994Z,63.60
2018-12-25T12:17:17.541Z,63.60
2018-12-25T12:19:59.697Z,63.80
2018-12-25T12:22:41.396Z,63.30
2018-12-25T12:25:22.797Z,62.80
2018-12-25T12:28:04.388Z,63.00
2018-12-25T12:30:46.595Z,62.50
2018-12-25T12:33:28.144Z,62.50
2018-12-25T12:36:10.185Z,62.90
2018-12-25T12:38:52.169Z,63.40
2018-12-25T12:41:34.072Z,63.30
2018-12-25T12:44:15.424Z,63.40
2018-12-25T12:46:44.857Z,62.80
2018-12-25T12:49:14.352Z,62.00
2018-12-25T12:51:55.961Z,62.30
2018-12-25T12:54:37.446Z,63.10
2018-12-25T12:57:19.549Z,63.30
2018-12-25T13:00:01.589Z,64.10
2018-12-25T13:02:43.165Z,63.00
2018-12-25T13:10:42.080Z,62.50
2018-12-25T13:13:31.437Z,63.20
2018-12-25T13:16:00.864Z,63.00
2018-12-25T13:18:49.656Z,63.50
2018-12-25T13:21:38.425Z,63.30
2018-12-25T13:24:19.812Z,63.10
2018-12-25T13:27:01.548Z,62.70
2018-12-25T13:29:43.618Z,63.60
2018-12-25T13:32:25.808Z,63.10
2018-12-25T13:35:07.283Z,62.70
2018-12-25T13:37:48.801Z,63.80
2018-12-25T13:40:30.168Z,63.00
2018-12-25T13:43:12.189Z,62.50
2018-12-25T13:45:54.055Z,62.60
2018-12-25T13:48:36.992Z,63.60
2018-12-25T13:51:18.798Z,63.40
2018-12-25T13:54:00.768Z,63.70
2018-12-25T13:56:42.408Z,63.50
2018-12-25T13:59:24.000Z,63.90
2018-12-25T14:02:05.617Z,63.40
2018-12-25T14:04:47.774Z,64.20
2018-12-25T14:07:17.568Z,64.00
2018-12-25T14:13:33.670Z,63.40
2018-12-25T14:16:15.627Z,62.40
2018-12-25T14:18:57.759Z,62.80
2018-12-25T14:21:39.802Z,63.20
2018-12-25T14:24:21.176Z,62.60
2018-12-25T14:27:03.216Z,63.30
2018-12-25T14:29:44.950Z,63.50
2018-12-25T14:32:26.928Z,63.40
2018-12-25T14:35:09.112Z,63.80
2018-12-25T14:37:50.441Z,64.70
2018-12-25T14:40:32.248Z,63.30
2018-12-25T14:43:17.948Z,64.00
2018-12-25T14:48:59.517Z,64.40
2018-12-25T14:51:44.943Z,64.20
2018-12-25T14:54:26.601Z,64.50
2018-12-25T14:57:08.396Z,64.80
2018-12-25T14:59:50.242Z,64.90
2018-12-25T15:02:31.640Z,64.90
2018-12-25T15:05:13.821Z,64.20
2018-12-25T15:07:59.377Z,64.90
2018-12-25T15:10:41.261Z,64.30
2018-12-25T15:13:22.701Z,64.80
2018-12-25T15:16:04.218Z,65.00
2018-12-25T15:18:46.034Z,65.50
2018-12-25T15:21:28.453Z,66.10
2018-12-25T15:26:51.728Z,65.80
2018-12-25T15:29:33.869Z,66.40
2018-12-25T15:32:16.250Z,65.90
2018-12-25T15:35:02.064Z,66.20
2018-12-25T15:37:43.597Z,66.60
2018-12-25T15:40:25.222Z,66.90
2018-12-25T15:43:07.202Z,66.50
2018-12-25T15:45:49.445Z,67.20
2018-12-25T15:48:30.946Z,66.90
2018-12-25T15:51:12.566Z,66.90
2018-12-25T15:53:54.029Z,67.40
2018-12-25T15:56:35.680Z,66.70
2018-12-25T15:59:17.597Z,67.00
2018-12-25T16:01:59.576Z,67.60
2018-12-25T16:04:41.261Z,67.70
2018-12-25T16:07:23.296Z,67.60
2018-12-25T16:10:08.129Z,66.90
2018-12-25T16:12:49.789Z,67.60
2018-12-25T16:15:31.025Z,66.90
2018-12-25T16:18:00.528Z,67.80
2018-12-25T16:20:49.316Z,67.10
2018-12-25T16:23:30.953Z,67.70
2018-12-25T16:26:12.297Z,66.90
2018-12-25T16:28:54.371Z,67.00
2018-12-25T16:31:36.201Z,67.50
2018-12-25T16:34:18.425Z,67.20
2018-12-25T16:40:03.740Z,66.70
2018-12-25T16:42:45.923Z,67.80
2018-12-25T16:48:26.474Z,67.30
2018-12-25T16:51:09.190Z,67.10
2018-12-25T16:53:53.608Z,67.40
2018-12-25T16:56:34.926Z,67.10
2018-12-25T16:59:17.074Z,67.80
2018-12-25T17:01:59.537Z,68.10
2018-12-25T17:04:41.925Z,66.70
2018-12-25T17:07:24.053Z,68.10
2018-12-25T17:10:05.691Z,68.20
2018-12-25T17:12:47.649Z,68.80
2018-12-25T17:15:29.557Z,68.60
2018-12-25T17:18:11.268Z,68.30
2018-12-25T17:20:53.775Z,68.30
2018-12-25T17:23:36.046Z,68.00
2018-12-25T17:26:17.306Z,67.60
2018-12-25T17:28:58.933Z,68.20
2018-12-25T17:31:44.254Z,68.60
2018-12-25T17:37:07.045Z,69.60
2018-12-25T17:39:49.138Z,69.80
2018-12-25T17:42:30.674Z,70.50
2018-12-25T17:45:12.914Z,70.80
2018-12-25T17:47:54.504Z,69.70
2018-12-25T17:50:36.201Z,68.80
2018-12-25T17:53:18.345Z,68.80
2018-12-25T17:56:00.646Z,69.80
2018-12-25T17:58:42.900Z,70.20
2018-12-25T18:01:25.025Z,69.80
2018-12-25T18:04:06.842Z,68.90
2018-12-25T18:06:48.372Z,68.50
2018-12-25T18:09:29.817Z,68.10
2018-12-25T18:12:11.408Z,68.20
2018-12-25T18:14:53.132Z,68.40
2018-12-25T18:17:22.690Z,68.10
2018-12-25T18:19:52.217Z,68.40
2018-12-25T18:22:41.077Z,68.00
2018-12-25T18:25:23.385Z,69.20
2018-12-25T18:28:05.501Z,68.90
2018-12-25T18:30:47.688Z,69.50
2018-12-25T18:33:29.670Z,69.20
2018-12-25T18:36:10.893Z,69.20
2018-12-25T18:38:40.459Z,69.30
2018-12-25T18:41:29.370Z,69.00
2018-12-25T18:44:11.829Z,69.60
2018-12-25T18:46:53.725Z,69.60
2018-12-25T18:49:35.794Z,69.20
2018-12-25T18:52:17.914Z,70.50
2018-12-25T18:55:00.096Z,69.50
2018-12-25T18:57:42.396Z,69.80
2018-12-25T19:00:24.013Z,70.80
2018-12-25T19:03:06.292Z,70.50
2018-12-25T19:05:48.322Z,69.80
2018-12-25T19:08:30.621Z,70.40
2018-12-25T19:11:14.138Z,69.30
2018-12-25T19:13:55.116Z,69.40
2018-12-25T19:16:36.520Z,70.00
2018-12-25T19:19:18.625Z,70.40
2018-12-25T19:22:00.861Z,69.80
2018-12-25T19:24:42.854Z,69.00
2018-12-25T19:27:24.770Z,69.50
2018-12-25T19:30:06.899Z,69.10
2018-12-25T19:32:49.167Z,68.80
2018-12-25T19:35:31.062Z,68.50
2018-12-25T19:38:13.021Z,69.00
2018-12-25T19:40:55.279Z,69.10
2018-12-25T19:43:37.601Z,69.10
2018-12-25T19:46:19.181Z,70.00
2018-12-25T19:49:00.916Z,70.20
2018-12-25T19:51:42.765Z,70.30
2018-12-25T19:54:24.617Z,70.10
2018-12-25T19:57:07.021Z,70.00
2018-12-25T19:59:36.756Z,72.00
2018-12-25T20:02:25.990Z,71.00
2018-12-25T20:05:08.177Z,70.60
2018-12-25T20:07:50.369Z,70.50
2018-12-25T20:10:40.828Z,71.20
2018-12-25T20:13:48.917Z,70.40
2018-12-25T20:16:31.308Z,70.60
2018-12-25T20:19:12.752Z,70.30
2018-12-25T20:21:54.369Z,70.00
2018-12-25T20:24:36.841Z,70.00
2018-12-25T20:27:18.683Z,69.70
2018-12-25T20:30:01.312Z,70.80
2018-12-25T20:32:42.902Z,71.60
2018-12-25T20:35:24.751Z,70.30
2018-12-25T20:38:06.168Z,71.10
2018-12-25T20:40:38.755Z,70.70
2018-12-25T20:43:11.867Z,70.70
2018-12-25T20:46:19.996Z,70.90
2018-12-25T20:49:28.109Z,70.40
2018-12-25T20:52:09.936Z,70.40
2018-12-25T20:54:52.088Z,70.90
2018-12-25T20:57:34.124Z,70.60
2018-12-25T21:00:15.489Z,70.40
2018-12-25T21:02:57.559Z,70.10
2018-12-25T21:05:39.725Z,69.90
2018-12-25T21:08:21.096Z,71.40
2018-12-25T21:11:17.925Z,70.10
2018-12-25T21:14:26.008Z,70.20
2018-12-25T21:17:07.876Z,70.00
2018-12-25T21:19:50.008Z,71.60
2018-12-25T21:22:31.873Z,71.60
2018-12-25T21:25:13.871Z,71.90
2018-12-25T21:27:55.937Z,71.40
2018-12-25T21:30:37.768Z,70.70
2018-12-25T21:33:10.699Z,70.90
2018-12-25T21:35:40.689Z,70.60
2018-12-25T21:38:10.430Z,70.20
2018-12-25T21:40:59.401Z,70.10
2018-12-25T21:44:07.921Z,69.90
2018-12-25T21:46:49.840Z,70.00
2018-12-25T21:49:31.532Z,70.30
2018-12-25T21:52:01.211Z,70.60
2018-12-25T21:54:50.050Z,70.90
2018-12-25T21:57:50.864Z,70.60
2018-12-25T22:00:36.793Z,70.80
2018-12-25T22:03:18.339Z,71.00
2018-12-25T22:05:59.997Z,71.20
2018-12-25T22:08:41.345Z,72.10
2018-12-25T22:11:23.589Z,71.70
2018-12-25T22:13:53.372Z,71.20
2018-12-25T22:16:42.219Z,71.50
2018-12-25T22:19:43.921Z,71.80
2018-12-25T22:22:25.833Z,71.70
2018-12-25T22:25:07.337Z,71.80
2018-12-25T22:27:48.718Z,71.50
2018-12-25T22:30:31.002Z,71.10
2018-12-25T22:33:12.498Z,72.00
2018-12-25T22:35:54.363Z,72.00
2018-12-25T22:38:36.424Z,71.80
2018-12-25T22:41:18.561Z,71.50
2018-12-25T22:44:00.249Z,72.30
2018-12-25T22:46:41.602Z,71.50
2018-12-25T22:49:23.483Z,71.20
2018-12-25T22:52:07.418Z,71.30
2018-12-25T22:54:48.997Z,71.50
2018-12-25T22:57:30.257Z,71.70
2018-12-25T23:00:12.045Z,71.70
2018-12-25T23:02:53.320Z,71.40
2018-12-25T23:05:34.741Z,71.40
2018-12-25T23:08:17.013Z,71.50
2018-12-25T23:10:58.224Z,72.50
2018-12-25T23:13:40.244Z,71.50
2018-12-25T23:16:22.341Z,71.90
2018-12-25T23:19:04.190Z,72.60
2018-12-25T23:21:46.201Z,72.00
2018-12-25T23:24:28.173Z,71.80
2018-12-25T23:27:10.318Z,73.30
2018-12-25T23:32:51.665Z,73.20
2018-12-25T23:35:33.189Z,72.90
2018-12-25T23:38:14.568Z,73.10
2018-12-25T23:40:55.969Z,72.90
2018-12-25T23:43:37.975Z,72.80
2018-12-25T23:49:00.701Z,72.40
2018-12-25T23:51:43.094Z,73.60
2018-12-25T23:54:24.421Z,73.30
2018-12-25T23:57:06.573Z,73.30
2018-12-25T23:59:48.798Z,73.70
